createdAt,value
2016-12-06T00:00:14.553Z,99.99
2016-12-06T00:01:14.557Z,99.99
2016-12-06T00:02:14.556Z,99.99
2016-12-06T00:03:14.485Z,99.99
2016-12-06T00:04:14.491Z,99.99
2016-12-06T00:05:14.572Z,99.99
2016-12-06T00:06:14.495Z,99.99
2016-12-06T00:07:14.497Z,99.99
2016-12-06T00:08:14.504Z,99.99
2016-12-06T00:09:14.511Z,99.99
2016-12-06T00:10:14.531Z,99.99
2016-12-06T00:11:14.619Z,99.99
2016-12-06T00:12:14.540Z,99.99
2016-12-06T00:13:14.599Z,99.99
2016-12-06T00:14:14.622Z,99.99
2016-12-06T00:15:14.593Z,99.99
2016-12-06T00:16:14.527Z,99.99
2016-12-06T00:17:14.524Z,99.99
2016-12-06T00:18:14.604Z,99.99
2016-12-06T00:19:14.676Z,99.99
2016-12-06T00:20:14.702Z,99.99
2016-12-06T00:21:14.540Z,99.99
2016-12-06T00:22:14.614Z,99.99
2016-12-06T00:23:14.536Z,99.99
2016-12-06T00:24:14.560Z,99.99
2016-12-06T00:25:14.549Z,99.99
2016-12-06T00:26:14.646Z,99.99
2016-12-06T00:27:14.627Z,99.99
2016-12-06T00:28:14.624Z,99.99
2016-12-06T00:29:14.567Z,99.99
2016-12-06T00:30:14.564Z,99.99
2016-12-06T00:31:14.571Z,99.99
2016-12-06T00:32:14.575Z,99.99
2016-12-06T00:33:14.577Z,99.99
2016-12-06T00:34:14.587Z,99.99
2016-12-06T00:35:14.678Z,99.99
2016-12-06T00:36:14.651Z,99.99
2016-12-06T00:37:14.663Z,99.99
2016-12-06T00:38:14.777Z,99.99
2016-12-06T00:39:14.587Z,99.99
2016-12-06T00:40:14.685Z,99.99
2016-12-06T00:41:14.599Z,99.99
2016-12-06T00:42:14.607Z,99.99
2016-12-06T00:43:14.612Z,99.99
2016-12-06T00:44:14.677Z,99.99
2016-12-06T00:45:14.617Z,99.99
2016-12-06T00:46:14.677Z,99.99
2016-12-06T00:47:14.612Z,99.99
2016-12-06T00:48:14.704Z,99.99
2016-12-06T00:49:14.748Z,99.99
2016-12-06T00:50:14.772Z,99.99
2016-12-06T00:51:14.655Z,99.99
2016-12-06T00:52:14.660Z,99.99
2016-12-06T00:53:14.697Z,99.99
2016-12-06T00:54:14.629Z,99.99
2016-12-06T00:55:14.710Z,99.99
2016-12-06T00:56:14.643Z,99.99
2016-12-06T00:57:14.648Z,99.99
2016-12-06T00:58:14.662Z,99.99
2016-12-06T00:59:14.658Z,99.99
2016-12-06T01:00:14.711Z,99.99
2016-12-06T01:01:14.644Z,99.99
2016-12-06T01:02:14.654Z,99.99
2016-12-06T01:03:14.662Z,99.99
2016-12-06T01:04:14.653Z,99.99
2016-12-06T01:05:14.650Z,99.99
2016-12-06T01:06:14.675Z,99.99
2016-12-06T01:07:14.736Z,99.99
2016-12-06T01:08:14.660Z,99.99
2016-12-06T01:09:14.923Z,99.99
2016-12-06T01:10:14.746Z,99.99
2016-12-06T01:11:14.761Z,99.99
2016-12-06T01:12:14.676Z,99.99
2016-12-06T01:13:14.679Z,99.99
2016-12-06T01:14:14.700Z,99.99
2016-12-06T01:15:14.689Z,99.99
2016-12-06T01:16:14.769Z,99.99
2016-12-06T01:17:14.687Z,99.99
2016-12-06T01:18:14.702Z,99.99
2016-12-06T01:19:14.719Z,99.99
2016-12-06T01:20:14.774Z,99.99
2016-12-06T01:21:14.854Z,99.99
2016-12-06T01:22:14.843Z,99.99
2016-12-06T01:23:14.753Z,99.99
2016-12-06T01:24:14.704Z,99.99
2016-12-06T01:25:14.781Z,99.99
2016-12-06T01:26:14.710Z,99.99
2016-12-06T01:27:14.788Z,99.99
2016-12-06T01:28:14.719Z,99.99
2016-12-06T01:29:14.718Z,99.99
2016-12-06T01:30:14.820Z,99.99
2016-12-06T01:31:14.797Z,99.99
2016-12-06T01:32:14.740Z,99.99
2016-12-06T01:33:14.734Z,99.99
2016-12-06T01:34:14.730Z,99.99
2016-12-06T01:35:14.736Z,99.99
2016-12-06T01:36:14.819Z,99.99
2016-12-06T01:37:14.743Z,99.99
2016-12-06T01:38:14.819Z,99.99
2016-12-06T01:39:14.906Z,99.99
2016-12-06T01:40:15.037Z,99.99
2016-12-06T01:41:14.749Z,99.99
2016-12-06T01:42:14.831Z,99.99
2016-12-06T01:43:14.755Z,99.99
2016-12-06T01:44:14.843Z,99.99
2016-12-06T01:45:14.846Z,99.99
2016-12-06T01:46:14.838Z,99.99
2016-12-06T01:47:14.858Z,99.99
2016-12-06T01:48:14.768Z,99.99
2016-12-06T01:49:14.775Z,99.99
2016-12-06T01:50:14.916Z,99.99
2016-12-06T01:51:14.887Z,99.99
2016-12-06T01:52:14.907Z,99.99
2016-12-06T01:53:14.934Z,99.99
2016-12-06T01:54:14.802Z,99.99
2016-12-06T01:55:14.799Z,99.99
2016-12-06T01:56:14.785Z,99.99
2016-12-06T01:57:14.816Z,99.99
2016-12-06T01:58:14.876Z,99.99
2016-12-06T01:59:14.814Z,99.99
2016-12-06T02:00:14.874Z,99.99
2016-12-06T02:01:14.877Z,99.99
2016-12-06T02:02:14.884Z,99.99
2016-12-06T02:03:14.877Z,99.99
2016-12-06T02:04:14.814Z,99.99
2016-12-06T02:05:14.830Z,99.99
2016-12-06T02:06:14.824Z,99.99
2016-12-06T02:07:14.841Z,99.99
2016-12-06T02:08:14.841Z,99.99
2016-12-06T02:09:14.841Z,99.99
2016-12-06T02:10:14.897Z,99.99
2016-12-06T02:11:14.985Z,99.99
2016-12-06T02:12:14.899Z,99.99
2016-12-06T02:13:14.965Z,99.99
2016-12-06T02:14:14.845Z,99.99
2016-12-06T02:15:14.917Z,99.99
2016-12-06T02:16:14.865Z,99.99
2016-12-06T02:17:14.912Z,99.99
2016-12-06T02:18:14.928Z,99.99
2016-12-06T02:19:14.936Z,99.99
2016-12-06T02:20:14.943Z,99.99
2016-12-06T02:21:14.929Z,99.99
2016-12-06T02:22:14.949Z,99.99
2016-12-06T02:23:14.921Z,99.99
2016-12-06T02:24:15.022Z,99.99
2016-12-06T02:25:14.993Z,99.99
2016-12-06T02:26:14.944Z,99.99
2016-12-06T02:27:14.958Z,99.99
2016-12-06T02:28:14.874Z,99.99
2016-12-06T02:29:14.878Z,99.99
2016-12-06T02:30:14.961Z,99.99
2016-12-06T02:31:14.952Z,99.99
2016-12-06T02:32:14.899Z,99.99
2016-12-06T02:33:14.890Z,99.99
2016-12-06T02:34:14.888Z,99.99
2016-12-06T02:35:14.889Z,99.99
2016-12-06T02:36:14.971Z,99.99
2016-12-06T02:37:15.135Z,99.99
2016-12-06T02:38:14.904Z,99.99
2016-12-06T02:39:14.999Z,99.99
2016-12-06T02:40:14.985Z,99.99
2016-12-06T02:41:14.987Z,99.99
2016-12-06T02:42:15.056Z,99.99
2016-12-06T02:43:14.991Z,99.99
2016-12-06T02:44:15.060Z,99.99
2016-12-06T02:45:14.924Z,99.99
2016-12-06T02:46:14.923Z,99.99
2016-12-06T02:47:15.013Z,99.99
2016-12-06T02:48:14.926Z,99.99
2016-12-06T02:49:14.944Z,99.99
2016-12-06T02:50:14.938Z,99.99
2016-12-06T02:51:15.021Z,99.99
2016-12-06T02:52:15.119Z,99.99
2016-12-06T02:53:14.943Z,99.99
2016-12-06T02:54:15.091Z,99.99
2016-12-06T02:55:15.102Z,99.99
2016-12-06T02:56:15.074Z,99.99
2016-12-06T02:57:15.049Z,99.99
2016-12-06T02:58:14.965Z,99.99
2016-12-06T02:59:15.028Z,99.99
2016-12-06T03:00:14.970Z,99.99
2016-12-06T03:01:15.036Z,99.99
2016-12-06T03:02:15.050Z,99.99
2016-12-06T03:03:15.043Z,99.99
2016-12-06T03:04:15.048Z,99.99
2016-12-06T03:05:14.980Z,99.99
2016-12-06T03:06:14.995Z,99.99
2016-12-06T03:07:15.051Z,99.99
2016-12-06T03:08:14.979Z,99.99
2016-12-06T03:09:15.063Z,99.99
2016-12-06T03:10:15.006Z,99.99
2016-12-06T03:11:15.016Z,99.99
2016-12-06T03:12:14.994Z,99.99
2016-12-06T03:13:15.245Z,99.99
2016-12-06T03:14:14.999Z,99.99
2016-12-06T03:15:15.133Z,99.99
2016-12-06T03:16:14.998Z,99.99
2016-12-06T03:17:15.013Z,99.99
2016-12-06T03:18:15.009Z,99.99
2016-12-06T03:19:15.020Z,99.99
2016-12-06T03:20:15.010Z,99.99
2016-12-06T03:21:15.094Z,99.99
2016-12-06T03:22:15.092Z,99.99
2016-12-06T03:23:15.104Z,99.99
2016-12-06T03:24:15.044Z,99.99
2016-12-06T03:25:15.084Z,99.99
2016-12-06T03:26:15.126Z,99.99
2016-12-06T03:27:15.043Z,99.99
2016-12-06T03:28:15.108Z,99.99
2016-12-06T03:29:15.048Z,99.99
2016-12-06T03:30:15.042Z,99.99
2016-12-06T03:31:15.168Z,99.99
2016-12-06T03:32:15.055Z,99.99
2016-12-06T03:33:15.122Z,99.99
2016-12-06T03:34:15.126Z,99.99
2016-12-06T03:35:15.065Z,99.99
2016-12-06T03:36:15.136Z,99.99
2016-12-06T03:37:15.140Z,99.99
2016-12-06T03:38:15.129Z,99.99
2016-12-06T03:39:15.062Z,99.99
2016-12-06T03:40:15.143Z,99.99
2016-12-06T03:41:15.174Z,99.99
2016-12-06T03:42:15.072Z,99.99
2016-12-06T03:43:15.200Z,99.99
2016-12-06T03:44:15.178Z,99.99
2016-12-06T03:45:15.086Z,99.99
2016-12-06T03:46:15.086Z,99.99
2016-12-06T03:47:15.098Z,99.99
2016-12-06T03:48:15.107Z,99.99
2016-12-06T03:49:15.164Z,99.99
2016-12-06T03:50:15.099Z,99.99
2016-12-06T03:51:15.190Z,99.99
2016-12-06T03:52:15.176Z,99.99
2016-12-06T03:53:15.208Z,99.99
2016-12-06T03:54:15.210Z,99.99
2016-12-06T03:55:15.195Z,99.99
2016-12-06T03:56:16.162Z,99.99
2016-12-06T03:57:15.116Z,99.99
2016-12-06T03:58:15.250Z,99.99
2016-12-06T03:59:15.205Z,99.99
2016-12-06T04:00:15.199Z,99.99
2016-12-06T04:01:15.136Z,99.99
2016-12-06T04:02:15.207Z,99.99
2016-12-06T04:03:15.215Z,99.99
2016-12-06T04:04:15.136Z,99.99
2016-12-06T04:05:15.141Z,99.99
2016-12-06T04:06:15.205Z,99.99
2016-12-06T04:07:15.220Z,99.99
2016-12-06T04:08:15.226Z,99.99
2016-12-06T04:09:15.140Z,99.99
2016-12-06T04:10:15.148Z,99.99
2016-12-06T04:11:15.152Z,99.99
2016-12-06T04:12:15.222Z,99.99
2016-12-06T04:13:15.230Z,99.99
2016-12-06T04:14:15.227Z,99.99
2016-12-06T04:15:15.225Z,99.99
2016-12-06T04:16:15.237Z,99.99
2016-12-06T04:17:15.246Z,99.99
2016-12-06T04:18:15.168Z,99.99
2016-12-06T04:19:15.169Z,99.99
2016-12-06T04:20:15.172Z,99.99
2016-12-06T04:21:15.194Z,99.99
2016-12-06T04:22:15.257Z,99.99
2016-12-06T04:23:15.250Z,99.99
2016-12-06T04:24:15.182Z,99.99
2016-12-06T04:25:15.263Z,99.99
2016-12-06T04:26:15.191Z,99.99
2016-12-06T04:27:15.193Z,99.99
2016-12-06T04:28:15.214Z,99.99
2016-12-06T04:29:15.206Z,99.99
2016-12-06T04:30:15.277Z,99.99
2016-12-06T04:31:15.292Z,99.99
2016-12-06T04:32:15.289Z,99.99
2016-12-06T04:33:15.292Z,99.99
2016-12-06T04:34:15.214Z,99.99
2016-12-06T04:35:15.215Z,99.99
2016-12-06T04:36:15.228Z,99.99
2016-12-06T04:37:15.293Z,99.99
2016-12-06T04:38:15.288Z,99.99
2016-12-06T04:39:15.220Z,99.99
2016-12-06T04:40:15.231Z,99.99
2016-12-06T04:41:15.233Z,99.99
2016-12-06T04:42:15.303Z,99.99
2016-12-06T04:43:15.240Z,99.99
2016-12-06T04:44:15.310Z,99.99
2016-12-06T04:45:15.317Z,99.99
2016-12-06T04:46:15.360Z,99.99
2016-12-06T04:47:15.261Z,99.99
2016-12-06T04:48:15.241Z,99.99
2016-12-06T04:49:15.325Z,99.99
2016-12-06T04:50:15.332Z,99.99
2016-12-06T04:51:15.257Z,99.99
2016-12-06T04:52:15.331Z,99.99
2016-12-06T04:53:15.320Z,99.99
2016-12-06T04:54:15.264Z,99.99
2016-12-06T04:55:15.358Z,99.99
2016-12-06T04:56:15.292Z,99.99
2016-12-06T04:57:15.283Z,99.99
2016-12-06T04:58:15.354Z,99.99
2016-12-06T04:59:15.359Z,99.99
2016-12-06T05:00:15.292Z,99.99
2016-12-06T05:01:15.290Z,99.99
2016-12-06T05:02:15.293Z,99.99
2016-12-06T05:03:15.380Z,99.99
2016-12-06T05:04:15.287Z,99.99
2016-12-06T05:05:15.360Z,99.99
2016-12-06T05:06:15.369Z,99.99
2016-12-06T05:07:15.368Z,99.99
2016-12-06T05:08:15.374Z,99.99
2016-12-06T05:09:15.382Z,99.99
2016-12-06T05:10:15.391Z,99.99
2016-12-06T05:11:15.318Z,99.99
2016-12-06T05:12:15.327Z,99.99
2016-12-06T05:13:15.386Z,99.99
2016-12-06T05:14:15.327Z,99.99
2016-12-06T05:15:15.393Z,99.99
2016-12-06T05:16:15.461Z,99.99
2016-12-06T05:17:15.420Z,99.99
2016-12-06T05:18:15.329Z,99.99
2016-12-06T05:19:15.456Z,99.99
2016-12-06T05:20:15.407Z,99.99
2016-12-06T05:21:15.338Z,99.99
2016-12-06T05:22:15.345Z,99.99
2016-12-06T05:23:15.413Z,99.99
2016-12-06T05:24:15.417Z,99.99
2016-12-06T05:25:15.354Z,99.99
2016-12-06T05:26:15.428Z,99.99
2016-12-06T05:27:15.434Z,99.99
2016-12-06T05:28:15.430Z,99.99
2016-12-06T05:29:15.377Z,99.99
2016-12-06T05:30:15.437Z,99.99
2016-12-06T05:31:15.442Z,99.99
2016-12-06T05:32:15.366Z,99.99
2016-12-06T05:33:15.373Z,99.99
2016-12-06T05:34:15.445Z,99.99
2016-12-06T05:35:15.468Z,99.99
2016-12-06T05:36:15.381Z,99.99
2016-12-06T05:37:15.394Z,99.99
2016-12-06T05:38:15.377Z,99.99
2016-12-06T05:39:15.383Z,99.99
2016-12-06T05:40:15.391Z,99.99
2016-12-06T05:41:15.508Z,99.99
2016-12-06T05:42:15.470Z,99.99
2016-12-06T05:43:15.475Z,99.99
2016-12-06T05:44:15.397Z,99.99
2016-12-06T05:45:15.478Z,99.99
2016-12-06T05:46:15.408Z,99.99
2016-12-06T05:47:15.415Z,99.99
2016-12-06T05:48:15.412Z,99.99
2016-12-06T05:49:15.493Z,99.99
2016-12-06T05:50:15.487Z,99.99
2016-12-06T05:51:15.437Z,99.99
2016-12-06T05:52:15.501Z,99.99
2016-12-06T05:53:15.510Z,99.99
2016-12-06T05:54:15.505Z,99.99
2016-12-06T05:55:15.496Z,99.99
2016-12-06T05:56:15.510Z,99.99
2016-12-06T05:57:15.533Z,99.99
2016-12-06T05:58:15.441Z,99.99
2016-12-06T05:59:15.447Z,99.99
2016-12-06T06:00:15.518Z,99.99
2016-12-06T06:01:15.455Z,99.99
2016-12-06T06:02:15.513Z,99.99
2016-12-06T06:03:15.515Z,99.99
2016-12-06T06:04:15.459Z,99.99
2016-12-06T06:05:15.462Z,99.99
2016-12-06T06:06:15.530Z,99.99
2016-12-06T06:07:15.556Z,99.99
2016-12-06T06:08:15.461Z,99.99
2016-12-06T06:09:15.460Z,99.99
2016-12-06T06:10:15.471Z,99.99
2016-12-06T06:11:15.549Z,99.99
2016-12-06T06:12:15.747Z,99.99
2016-12-06T06:13:15.471Z,99.99
2016-12-06T06:14:15.556Z,99.99
2016-12-06T06:15:15.490Z,99.99
2016-12-06T06:16:15.575Z,99.99
2016-12-06T06:17:15.554Z,99.99
2016-12-06T06:18:15.567Z,99.99
2016-12-06T06:19:15.490Z,99.99
2016-12-06T06:20:15.570Z,99.99
2016-12-06T06:21:15.506Z,99.99
2016-12-06T06:22:15.576Z,99.99
2016-12-06T06:23:15.539Z,99.99
2016-12-06T06:24:15.604Z,99.99
2016-12-06T06:25:15.596Z,99.99
2016-12-06T06:26:15.518Z,99.99
2016-12-06T06:27:15.530Z,99.99
2016-12-06T06:28:15.589Z,99.99
2016-12-06T06:29:15.617Z,99.99
2016-12-06T06:30:15.536Z,99.99
2016-12-06T06:31:15.614Z,99.99
2016-12-06T06:32:15.595Z,99.99
2016-12-06T06:33:15.525Z,99.99
2016-12-06T06:34:15.605Z,99.99
2016-12-06T06:35:15.531Z,99.99
2016-12-06T06:36:15.543Z,99.99
2016-12-06T06:37:15.532Z,99.99
2016-12-06T06:38:15.547Z,99.99
2016-12-06T06:39:15.572Z,99.99
2016-12-06T06:40:15.543Z,99.99
2016-12-06T06:41:15.622Z,99.99
2016-12-06T06:42:15.546Z,99.99
2016-12-06T06:43:15.596Z,99.99
2016-12-06T06:44:15.562Z,99.99
2016-12-06T06:45:15.557Z,99.99
2016-12-06T06:46:15.649Z,99.99
2016-12-06T06:47:15.638Z,99.99
2016-12-06T06:48:15.661Z,99.99
2016-12-06T06:49:15.666Z,99.99
2016-12-06T06:50:15.655Z,99.99
2016-12-06T06:51:15.647Z,99.99
2016-12-06T06:52:15.674Z,99.99
2016-12-06T06:53:15.600Z,99.99
2016-12-06T06:54:15.682Z,99.99
2016-12-06T06:55:15.700Z,99.99
2016-12-06T06:56:15.596Z,99.99
2016-12-06T06:57:15.673Z,99.99
2016-12-06T06:58:15.630Z,99.99
2016-12-06T06:59:15.705Z,99.99
2016-12-06T07:00:15.680Z,99.99
2016-12-06T07:01:15.682Z,99.99
2016-12-06T07:02:15.610Z,99.99
2016-12-06T07:03:15.691Z,99.99
2016-12-06T07:04:15.692Z,99.99
2016-12-06T07:05:15.744Z,99.99
2016-12-06T07:06:15.701Z,99.99
2016-12-06T07:07:15.620Z,99.99
2016-12-06T07:08:15.697Z,99.99
2016-12-06T07:09:15.698Z,99.99
2016-12-06T07:10:15.625Z,99.99
2016-12-06T07:11:15.688Z,99.99
2016-12-06T07:12:15.636Z,99.99
2016-12-06T07:13:15.726Z,99.99
2016-12-06T07:14:15.660Z,99.99
2016-12-06T07:15:15.659Z,99.99
2016-12-06T07:16:15.717Z,99.99
2016-12-06T07:17:15.730Z,99.99
2016-12-06T07:18:15.654Z,99.99
2016-12-06T07:19:15.756Z,99.99
2016-12-06T07:20:15.731Z,99.99
2016-12-06T07:21:15.740Z,99.99
2016-12-06T07:22:15.685Z,99.99
2016-12-06T07:23:15.685Z,99.99
2016-12-06T07:24:15.763Z,99.99
2016-12-06T07:25:15.783Z,99.99
2016-12-06T07:26:15.675Z,99.99
2016-12-06T07:27:15.797Z,99.99
2016-12-06T07:28:15.696Z,99.99
2016-12-06T07:29:15.829Z,99.99
2016-12-06T07:30:15.697Z,99.99
2016-12-06T07:31:15.694Z,99.99
2016-12-06T07:32:15.806Z,99.99
2016-12-06T07:33:15.765Z,99.99
2016-12-06T07:34:15.731Z,99.99
2016-12-06T07:35:15.731Z,99.99
2016-12-06T07:36:15.714Z,99.99
2016-12-06T07:37:15.828Z,99.99
2016-12-06T07:38:15.714Z,99.99
2016-12-06T07:39:15.705Z,99.99
2016-12-06T07:40:15.704Z,99.99
2016-12-06T07:41:15.798Z,99.99
2016-12-06T07:42:15.795Z,99.99
2016-12-06T07:43:15.764Z,99.99
2016-12-06T07:44:15.844Z,99.99
2016-12-06T07:45:15.799Z,99.99
2016-12-06T07:46:15.721Z,99.99
2016-12-06T07:47:15.812Z,99.99
2016-12-06T07:48:15.752Z,99.99
2016-12-06T07:49:15.809Z,99.99
2016-12-06T07:50:15.818Z,99.99
2016-12-06T07:51:15.823Z,99.99
2016-12-06T07:52:15.850Z,99.99
2016-12-06T07:53:15.744Z,99.99
2016-12-06T07:54:15.784Z,99.99
2016-12-06T07:55:15.831Z,99.99
2016-12-06T07:56:15.820Z,99.99
2016-12-06T07:57:15.841Z,99.99
2016-12-06T07:58:15.838Z,99.99
2016-12-06T07:59:15.883Z,99.99
2016-12-06T08:00:15.831Z,99.99
2016-12-06T08:01:15.857Z,99.99
2016-12-06T08:02:15.839Z,99.99
2016-12-06T08:03:15.854Z,99.99
2016-12-06T08:04:15.851Z,99.99
2016-12-06T08:05:15.860Z,99.99
2016-12-06T08:06:15.785Z,99.99
2016-12-06T08:07:15.867Z,99.99
2016-12-06T08:08:15.786Z,99.99
2016-12-06T08:09:15.793Z,99.99
2016-12-06T08:10:15.869Z,99.99
2016-12-06T08:11:15.825Z,99.99
2016-12-06T08:12:15.815Z,99.99
2016-12-06T08:13:15.869Z,99.99
2016-12-06T08:14:15.834Z,99.99
2016-12-06T08:15:15.831Z,99.99
2016-12-06T08:16:15.884Z,99.99
2016-12-06T08:17:15.817Z,99.99
2016-12-06T08:18:15.913Z,99.99
2016-12-06T08:19:15.898Z,99.99
2016-12-06T08:20:15.896Z,99.99
2016-12-06T08:21:15.830Z,99.99
2016-12-06T08:22:15.822Z,99.99
2016-12-06T08:23:15.921Z,99.99
2016-12-06T08:24:15.941Z,99.99
2016-12-06T08:25:15.891Z,99.99
2016-12-06T08:26:15.949Z,99.99
2016-12-06T08:27:15.932Z,99.99
2016-12-06T08:28:15.849Z,99.99
2016-12-06T08:29:15.859Z,99.99
2016-12-06T08:30:15.849Z,99.99
2016-12-06T08:31:15.941Z,99.99
2016-12-06T08:32:15.953Z,99.99
2016-12-06T08:33:15.871Z,99.99
2016-12-06T08:34:15.864Z,99.99
2016-12-06T08:35:15.939Z,99.99
2016-12-06T08:36:15.867Z,99.99
2016-12-06T08:37:15.930Z,99.99
2016-12-06T08:38:15.856Z,99.99
2016-12-06T08:39:15.893Z,99.99
2016-12-06T08:40:15.958Z,99.99
2016-12-06T08:41:15.888Z,99.99
2016-12-06T08:42:15.969Z,99.99
2016-12-06T08:43:15.949Z,99.99
2016-12-06T08:44:15.968Z,99.99
2016-12-06T08:45:15.878Z,99.99
2016-12-06T08:46:15.983Z,99.99
2016-12-06T08:47:15.959Z,99.99
2016-12-06T08:48:15.933Z,99.99
2016-12-06T08:49:15.985Z,99.99
2016-12-06T08:50:16.069Z,99.99
2016-12-06T08:51:15.983Z,99.99
2016-12-06T08:52:16.143Z,99.99
2016-12-06T08:53:16.374Z,99.99
2016-12-06T08:54:16.081Z,99.99
2016-12-06T08:55:15.988Z,99.99
2016-12-06T08:56:16.028Z,99.99
2016-12-06T08:57:15.919Z,99.99
2016-12-06T08:58:15.988Z,99.99
2016-12-06T08:59:15.958Z,99.99
2016-12-06T09:00:16.006Z,99.99
2016-12-06T09:01:15.949Z,99.99
2016-12-06T09:02:15.947Z,99.99
2016-12-06T09:03:16.084Z,99.99
2016-12-06T09:04:16.451Z,99.99
2016-12-06T09:05:16.831Z,99.99
2016-12-06T09:06:16.186Z,99.99
2016-12-06T09:07:16.064Z,99.99
2016-12-06T09:08:16.045Z,99.99
2016-12-06T09:09:16.845Z,99.99
2016-12-06T09:10:16.080Z,99.99
2016-12-06T09:11:15.963Z,99.99
2016-12-06T09:12:16.064Z,99.99
2016-12-06T09:13:16.031Z,99.99
2016-12-06T09:14:16.044Z,99.99
2016-12-06T09:15:15.969Z,99.99
2016-12-06T09:16:16.098Z,99.99
2016-12-06T09:17:17.649Z,99.99
2016-12-06T09:18:16.033Z,99.99
2016-12-06T09:19:16.067Z,99.99
2016-12-06T09:20:16.110Z,99.99
2016-12-06T09:21:16.071Z,99.99
2016-12-06T09:22:16.095Z,99.99
2016-12-06T09:23:16.116Z,99.99
2016-12-06T09:24:16.014Z,99.99
2016-12-06T09:25:16.147Z,99.99
2016-12-06T09:26:15.990Z,99.99
2016-12-06T09:27:16.167Z,99.99
2016-12-06T09:28:16.127Z,99.99
2016-12-06T09:29:16.022Z,99.99
2016-12-06T09:30:16.028Z,99.99
2016-12-06T09:31:16.022Z,99.99
2016-12-06T09:32:16.090Z,99.99
2016-12-06T09:33:16.204Z,99.99
2016-12-06T09:34:16.014Z,99.99
2016-12-06T09:35:16.037Z,99.99
2016-12-06T09:36:16.183Z,99.99
2016-12-06T09:37:16.240Z,99.99
2016-12-06T09:38:16.101Z,99.99
2016-12-06T09:39:16.027Z,99.99
2016-12-06T09:40:16.096Z,99.99
2016-12-06T09:41:16.106Z,99.99
2016-12-06T09:42:16.092Z,99.99
2016-12-06T09:43:16.143Z,99.99
2016-12-06T09:44:16.147Z,99.99
2016-12-06T09:45:16.115Z,99.99
2016-12-06T09:46:16.131Z,99.99
2016-12-06T09:47:16.060Z,99.99
2016-12-06T09:48:16.198Z,99.99
2016-12-06T09:49:16.135Z,99.99
2016-12-06T09:50:16.143Z,99.99
2016-12-06T09:51:16.183Z,99.99
2016-12-06T09:52:16.077Z,99.99
2016-12-06T09:53:16.148Z,99.99
2016-12-06T09:54:16.155Z,99.99
2016-12-06T09:55:16.189Z,99.99
2016-12-06T09:56:16.077Z,99.99
2016-12-06T09:57:16.161Z,99.99
2016-12-06T09:58:16.114Z,99.99
2016-12-06T09:59:16.080Z,99.99
2016-12-06T10:00:16.187Z,99.99
2016-12-06T10:01:16.227Z,99.99
2016-12-06T10:02:16.096Z,99.99
2016-12-06T10:03:16.192Z,99.99
2016-12-06T10:04:16.096Z,99.99
2016-12-06T10:05:16.198Z,99.99
2016-12-06T10:06:16.218Z,99.99
2016-12-06T10:07:16.201Z,99.99
2016-12-06T10:08:16.226Z,99.99
2016-12-06T10:09:16.116Z,99.99
2016-12-06T10:10:16.223Z,99.99
2016-12-06T10:11:16.215Z,99.99
2016-12-06T10:12:16.136Z,99.99
2016-12-06T10:13:16.129Z,99.99
2016-12-06T10:14:16.224Z,99.99
2016-12-06T10:15:16.218Z,99.99
2016-12-06T10:16:16.142Z,99.99
2016-12-06T10:17:16.130Z,99.99
2016-12-06T10:18:16.225Z,99.99
2016-12-06T10:19:16.129Z,99.99
2016-12-06T10:20:16.235Z,99.99
2016-12-06T10:21:16.161Z,99.99
2016-12-06T10:22:16.397Z,99.99
2016-12-06T10:23:16.294Z,99.99
2016-12-06T10:24:16.281Z,99.99
2016-12-06T10:25:16.156Z,99.99
2016-12-06T10:26:16.245Z,99.99
2016-12-06T10:27:16.198Z,99.99
2016-12-06T10:28:16.164Z,99.99
2016-12-06T10:29:16.211Z,99.99
2016-12-06T10:30:16.241Z,99.99
2016-12-06T10:31:16.256Z,99.99
2016-12-06T10:32:16.962Z,99.99
2016-12-06T10:33:16.253Z,99.99
2016-12-06T10:34:16.265Z,99.99
2016-12-06T10:35:16.185Z,99.99
2016-12-06T10:36:16.271Z,99.99
2016-12-06T10:37:16.271Z,99.99
2016-12-06T10:38:16.188Z,99.99
2016-12-06T10:39:16.231Z,99.99
2016-12-06T10:40:16.267Z,99.99
2016-12-06T10:41:16.194Z,99.99
2016-12-06T10:42:16.270Z,99.99
2016-12-06T10:43:16.300Z,99.99
2016-12-06T10:44:16.283Z,99.99
2016-12-06T10:45:16.285Z,99.99
2016-12-06T10:46:16.224Z,99.99
2016-12-06T10:47:16.225Z,99.99
2016-12-06T10:48:16.285Z,99.99
2016-12-06T10:49:16.320Z,99.99
2016-12-06T10:50:16.256Z,99.99
2016-12-06T10:51:16.232Z,99.99
2016-12-06T10:52:16.348Z,99.99
2016-12-06T10:53:16.320Z,99.99
2016-12-06T10:54:16.255Z,99.99
2016-12-06T10:55:16.272Z,99.99
2016-12-06T10:56:16.361Z,99.99
2016-12-06T10:57:16.344Z,99.99
2016-12-06T10:58:16.244Z,99.99
2016-12-06T10:59:16.386Z,99.99
2016-12-06T11:00:16.418Z,99.99
2016-12-06T11:01:16.392Z,99.99
2016-12-06T11:02:16.306Z,99.99
2016-12-06T11:03:16.291Z,99.99
2016-12-06T11:04:16.289Z,99.99
2016-12-06T11:05:16.288Z,99.99
2016-12-06T11:06:16.571Z,99.99
2016-12-06T11:07:16.363Z,99.99
2016-12-06T11:08:16.498Z,99.99
2016-12-06T11:09:16.278Z,99.99
2016-12-06T11:10:16.315Z,99.99
2016-12-06T11:11:16.415Z,99.99
2016-12-06T11:12:16.308Z,99.99
2016-12-06T11:13:16.403Z,99.99
2016-12-06T11:14:16.367Z,99.99
2016-12-06T11:15:16.289Z,99.99
2016-12-06T11:16:17.341Z,99.99
2016-12-06T11:17:16.294Z,99.99
2016-12-06T11:18:17.448Z,99.99
2016-12-06T11:19:16.964Z,99.99
2016-12-06T11:20:19.087Z,99.99
2016-12-06T11:21:16.342Z,99.99
2016-12-06T11:22:16.312Z,99.99
2016-12-06T11:23:16.325Z,99.99
2016-12-06T11:24:16.346Z,99.99
2016-12-06T11:25:16.424Z,99.99
2016-12-06T11:26:16.402Z,99.99
2016-12-06T11:27:16.377Z,99.99
2016-12-06T11:28:16.399Z,99.99
2016-12-06T11:29:16.401Z,99.99
2016-12-06T11:30:16.372Z,99.99
2016-12-06T11:31:16.414Z,99.99
2016-12-06T11:32:16.465Z,99.99
2016-12-06T11:33:16.338Z,99.99
2016-12-06T11:34:16.394Z,99.99
2016-12-06T11:35:16.348Z,99.99
2016-12-06T11:36:16.364Z,99.99
2016-12-06T11:37:16.362Z,99.99
2016-12-06T11:38:16.357Z,99.99
2016-12-06T11:39:16.396Z,99.99
2016-12-06T11:40:16.428Z,99.99
2016-12-06T11:41:16.390Z,99.99
2016-12-06T11:42:16.570Z,99.99
2016-12-06T11:43:16.468Z,98.93
2016-12-06T11:44:16.460Z,99.78
2016-12-06T11:45:16.461Z,99.69
2016-12-06T11:46:16.479Z,99.99
2016-12-06T11:47:16.462Z,99.99
2016-12-06T11:48:16.500Z,99.99
2016-12-06T11:49:16.408Z,99.83
2016-12-06T11:50:16.390Z,99.44
2016-12-06T11:51:16.476Z,98.93
2016-12-06T11:52:16.482Z,98.45
2016-12-06T11:53:16.470Z,96.93
2016-12-06T11:54:16.459Z,94.93
2016-12-06T11:55:16.414Z,94.37
2016-12-06T11:56:16.413Z,94.46
2016-12-06T11:57:16.496Z,93.37
2016-12-06T11:58:16.543Z,92.61
2016-12-06T11:59:16.523Z,90.89
2016-12-06T12:00:16.450Z,91.37
2016-12-06T12:01:16.431Z,91.04
2016-12-06T12:02:16.517Z,92.08
2016-12-06T12:03:16.586Z,92.27
2016-12-06T12:04:16.464Z,91.28
2016-12-06T12:05:16.526Z,90.61
2016-12-06T12:06:16.541Z,90.94
2016-12-06T12:07:16.533Z,90.19
2016-12-06T12:08:16.582Z,91.61
2016-12-06T12:09:16.447Z,92.08
2016-12-06T12:10:16.649Z,92.71
2016-12-06T12:11:16.544Z,92.94
2016-12-06T12:12:16.555Z,92.37
2016-12-06T12:13:16.479Z,91.04
2016-12-06T12:14:16.544Z,91.8
2016-12-06T12:15:16.550Z,93.84
2016-12-06T12:16:16.468Z,93.56
2016-12-06T12:17:16.531Z,93.37
2016-12-06T12:18:16.532Z,94.56
2016-12-06T12:19:16.557Z,95.89
2016-12-06T12:20:16.485Z,95.12
2016-12-06T12:21:16.611Z,93.56
2016-12-06T12:22:16.645Z,92.42
2016-12-06T12:23:16.523Z,91.66
2016-12-06T12:24:16.485Z,90.37
2016-12-06T12:25:16.586Z,90.37
2016-12-06T12:26:16.696Z,91.19
2016-12-06T12:27:16.672Z,91.28
2016-12-06T12:28:16.529Z,91.09
2016-12-06T12:29:19.054Z,90.47
2016-12-06T12:30:16.753Z,92.04
2016-12-06T12:31:16.614Z,92.42
2016-12-06T12:32:16.518Z,91.94
2016-12-06T12:33:16.593Z,91.94
2016-12-06T12:34:17.053Z,91.19
2016-12-06T12:35:16.642Z,91.19
2016-12-06T12:36:16.544Z,90.71
2016-12-06T12:37:16.584Z,90.61
2016-12-06T12:38:16.660Z,91.56
2016-12-06T12:39:16.667Z,90.37
2016-12-06T12:40:16.742Z,89.42
2016-12-06T12:41:16.660Z,89.9
2016-12-06T12:42:16.664Z,90.33
2016-12-06T12:43:16.624Z,90.23
2016-12-06T12:44:16.674Z,90.42
2016-12-06T12:45:16.827Z,91.28
2016-12-06T12:46:16.654Z,91.94
2016-12-06T12:47:16.686Z,93.6
2016-12-06T12:48:16.631Z,93.89
2016-12-06T12:49:16.647Z,93.41
2016-12-06T12:50:18.293Z,93.46
2016-12-06T12:51:17.604Z,94.13
2016-12-06T12:52:16.669Z,94.84